Mayport Ns (Adm David L. Mcdonald Field) Airport Mayport US
ICAO: KNRB
IATA: NRB
Category: Medium
Scheduled Services: No

Elevation: 15 ft
TransAlt. 18000 ft.

Airport Communications:
JACKSONVILLE APP/DEP:124.9
ATIS:26.86
GND:126.5
PTD:30.85
TWR:118.75

KNRB Zoom In..

If you have problems with the map follow the link
https://www.worldairports.se/pages/airport.php?
ICAO=KNRB

Runways:

(A) RW 05 length 8001 ft width 200 ft
---- / hdg 46

(B) RW 23 length 8001 ft width 200 ft
---- / hdg 226

Location; KNRB
Day. 18 / Time. 01.52 Zulu
* Altimeter: 29.98
* Temperature: 18° c. 64.4°f.
* Wind from: 170° Speed 06 kn.
Dewpoint: 17° c.
Visibility: 8 Statute Miles.
Clouds: Scattered 6000 ft.

KNRB 180152Z AUTO 17006KT 8SM SCT060 18/17 A2998 RMK AO2 SLP150 T01830172


Wind From 170°
Speed 06 kn.

 
 
jpsmedia.com for Web Design worldairports.se 2019   terms of use